sensor_id;sensor_type;location;lat;lon;timestamp;P1;durP1;ratioP1;P2;durP2;ratioP2
40501;SDS011;29631;49.168;9.848;2022-08-04T00:00:12;1.50;;;1.30;;
40501;SDS011;29631;49.168;9.848;2022-08-04T00:09:00;1.10;;;1.10;;
40501;SDS011;29631;49.168;9.848;2022-08-04T00:11:32;2.55;;;1.27;;
40501;SDS011;29631;49.168;9.848;2022-08-04T00:14:02;1.52;;;1.50;;
40501;SDS011;29631;49.168;9.848;2022-08-04T00:16:35;1.33;;;1.23;;
40501;SDS011;29631;49.168;9.848;2022-08-04T00:19:03;1.33;;;1.30;;
40501;SDS011;29631;49.168;9.848;2022-08-04T00:21:41;1.08;;;1.08;;
40501;SDS011;29631;49.168;9.848;2022-08-04T00:24:15;1.80;;;1.40;;
40501;SDS011;29631;49.168;9.848;2022-08-04T00:26:44;1.83;;;1.48;;
40501;SDS011;29631;49.168;9.848;2022-08-04T00:29:11;1.30;;;1.30;;
40501;SDS011;29631;49.168;9.848;2022-08-04T00:31:36;1.55;;;1.30;;
40501;SDS011;29631;49.168;9.848;2022-08-04T00:34:05;1.63;;;1.52;;
40501;SDS011;29631;49.168;9.848;2022-08-04T00:36:34;2.30;;;1.60;;
40501;SDS011;29631;49.168;9.848;2022-08-04T00:39:00;1.63;;;1.52;;
40501;SDS011;29631;49.168;9.848;2022-08-04T00:41:33;1.55;;;1.50;;
40501;SDS011;29631;49.168;9.848;2022-08-04T00:58:36;1.02;;;1.00;;
40501;SDS011;29631;49.168;9.848;2022-08-04T01:01:47;1.50;;;1.42;;
40501;SDS011;29631;49.168;9.848;2022-08-04T01:07:03;1.88;;;1.30;;
40501;SDS011;29631;49.168;9.848;2022-08-04T01:09:57;1.70;;;1.60;;
40501;SDS011;29631;49.168;9.848;2022-08-04T01:15:47;2.28;;;1.40;;
40501;SDS011;29631;49.168;9.848;2022-08-04T01:18:26;2.15;;;1.17;;
40501;SDS011;29631;49.168;9.848;2022-08-04T01:27:05;1.70;;;1.60;;
40501;SDS011;29631;49.168;9.848;2022-08-04T01:29:51;1.50;;;1.25;;
40501;SDS011;29631;49.168;9.848;2022-08-04T01:32:24;1.20;;;1.20;;
40501;SDS011;29631;49.168;9.848;2022-08-04T01:35:20;1.48;;;1.40;;
40501;SDS011;29631;49.168;9.848;2022-08-04T01:41:28;2.33;;;1.35;;
40501;SDS011;29631;49.168;9.848;2022-08-04T01:43:47;1.65;;;1.33;;
40501;SDS011;29631;49.168;9.848;2022-08-04T01:46:18;2.15;;;1.42;;
40501;SDS011;29631;49.168;9.848;2022-08-04T01:48:45;1.20;;;1.20;;
40501;SDS011;29631;49.168;9.848;2022-08-04T01:51:17;1.50;;;1.40;;
40501;SDS011;29631;49.168;9.848;2022-08-04T01:53:46;1.33;;;1.33;;
40501;SDS011;29631;49.168;9.848;2022-08-04T01:56:12;1.40;;;1.40;;
40501;SDS011;29631;49.168;9.848;2022-08-04T01:58:38;1.30;;;1.30;;
40501;SDS011;29631;49.168;9.848;2022-08-04T02:01:05;1.50;;;1.30;;
40501;SDS011;29631;49.168;9.848;2022-08-04T02:03:37;1.65;;;1.33;;
40501;SDS011;29631;49.168;9.848;2022-08-04T02:06:18;1.45;;;1.42;;
40501;SDS011;29631;49.168;9.848;2022-08-04T02:09:01;1.42;;;1.42;;
40501;SDS011;29631;49.168;9.848;2022-08-04T02:12:16;1.50;;;1.40;;
40501;SDS011;29631;49.168;9.848;2022-08-04T02:15:23;1.75;;;1.23;;
40501;SDS011;29631;49.168;9.848;2022-08-04T02:21:31;1.30;;;1.30;;
40501;SDS011;29631;49.168;9.848;2022-08-04T02:24:13;1.70;;;1.60;;
40501;SDS011;29631;49.168;9.848;2022-08-04T02:26:42;1.40;;;1.40;;
40501;SDS011;29631;49.168;9.848;2022-08-04T02:32:02;1.63;;;1.50;;
40501;SDS011;29631;49.168;9.848;2022-08-04T02:34:38;1.70;;;1.60;;
40501;SDS011;29631;49.168;9.848;2022-08-04T02:37:36;1.45;;;1.42;;
40501;SDS011;29631;49.168;9.848;2022-08-04T02:40:03;1.80;;;1.35;;
40501;SDS011;29631;49.168;9.848;2022-08-04T02:42:31;1.33;;;1.33;;
40501;SDS011;29631;49.168;9.848;2022-08-04T02:44:58;2.42;;;1.60;;
40501;SDS011;29631;49.168;9.848;2022-08-04T02:47:26;2.28;;;1.70;;
40501;SDS011;29631;49.168;9.848;2022-08-04T02:49:54;1.45;;;1.45;;
40501;SDS011;29631;49.168;9.848;2022-08-04T02:52:22;1.60;;;1.50;;
40501;SDS011;29631;49.168;9.848;2022-08-04T02:54:53;1.58;;;1.50;;
40501;SDS011;29631;49.168;9.848;2022-08-04T02:57:25;3.20;;;1.50;;
40501;SDS011;29631;49.168;9.848;2022-08-04T03:00:10;1.70;;;1.52;;
40501;SDS011;29631;49.168;9.848;2022-08-04T03:20:23;2.47;;;1.35;;
40501;SDS011;29631;49.168;9.848;2022-08-04T03:32:05;1.63;;;1.58;;
40501;SDS011;29631;49.168;9.848;2022-08-04T04:08:06;1.52;;;1.52;;
40501;SDS011;29631;49.168;9.848;2022-08-04T04:22:59;1.45;;;1.35;;
40501;SDS011;29631;49.168;9.848;2022-08-04T04:29:34;1.90;;;1.80;;
40501;SDS011;29631;49.168;9.848;2022-08-04T04:32:37;2.22;;;1.60;;
40501;SDS011;29631;49.168;9.848;2022-08-04T04:36:02;1.50;;;1.50;;
40501;SDS011;29631;49.168;9.848;2022-08-04T04:39:18;1.50;;;1.42;;
40501;SDS011;29631;49.168;9.848;2022-08-04T04:45:25;1.77;;;1.67;;
40501;SDS011;29631;49.168;9.848;2022-08-04T04:53:49;2.05;;;1.67;;
40501;SDS011;29631;49.168;9.848;2022-08-04T04:57:06;2.97;;;1.40;;
40501;SDS011;29631;49.168;9.848;2022-08-04T04:59:56;1.40;;;1.40;;
40501;SDS011;29631;49.168;9.848;2022-08-04T05:02:38;1.90;;;1.80;;
40501;SDS011;29631;49.168;9.848;2022-08-04T05:05:50;1.55;;;1.55;;
40501;SDS011;29631;49.168;9.848;2022-08-04T05:08:39;1.92;;;1.42;;
40501;SDS011;29631;49.168;9.848;2022-08-04T05:14:11;1.50;;;1.50;;
40501;SDS011;29631;49.168;9.848;2022-08-04T05:22:32;2.38;;;1.40;;
40501;SDS011;29631;49.168;9.848;2022-08-04T05:25:19;1.33;;;1.33;;
40501;SDS011;29631;49.168;9.848;2022-08-04T05:30:42;1.80;;;1.50;;
40501;SDS011;29631;49.168;9.848;2022-08-04T05:33:36;1.52;;;1.52;;
40501;SDS011;29631;49.168;9.848;2022-08-04T05:36:38;1.92;;;1.80;;
40501;SDS011;29631;49.168;9.848;2022-08-04T05:39:18;1.60;;;1.60;;
40501;SDS011;29631;49.168;9.848;2022-08-04T05:41:50;1.63;;;1.63;;
40501;SDS011;29631;49.168;9.848;2022-08-04T05:44:17;1.60;;;1.52;;
40501;SDS011;29631;49.168;9.848;2022-08-04T05:46:46;1.60;;;1.60;;
40501;SDS011;29631;49.168;9.848;2022-08-04T05:49:15;1.73;;;1.63;;
40501;SDS011;29631;49.168;9.848;2022-08-04T05:51:43;1.67;;;1.55;;
40501;SDS011;29631;49.168;9.848;2022-08-04T05:54:10;1.85;;;1.50;;
40501;SDS011;29631;49.168;9.848;2022-08-04T05:56:37;2.17;;;1.75;;
40501;SDS011;29631;49.168;9.848;2022-08-04T05:59:04;1.60;;;1.50;;
40501;SDS011;29631;49.168;9.848;2022-08-04T06:01:31;1.70;;;1.60;;
40501;SDS011;29631;49.168;9.848;2022-08-04T06:04:00;3.40;;;1.58;;
40501;SDS011;29631;49.168;9.848;2022-08-04T06:06:27;1.73;;;1.73;;
40501;SDS011;29631;49.168;9.848;2022-08-04T06:08:54;1.77;;;1.67;;
40501;SDS011;29631;49.168;9.848;2022-08-04T06:11:20;1.60;;;1.50;;
40501;SDS011;29631;49.168;9.848;2022-08-04T06:13:57;1.65;;;1.45;;
40501;SDS011;29631;49.168;9.848;2022-08-04T06:16:31;2.17;;;1.50;;
40501;SDS011;29631;49.168;9.848;2022-08-04T06:19:03;1.48;;;1.42;;
40501;SDS011;29631;49.168;9.848;2022-08-04T06:21:32;1.80;;;1.40;;
40501;SDS011;29631;49.168;9.848;2022-08-04T06:24:03;2.10;;;1.70;;
40501;SDS011;29631;49.168;9.848;2022-08-04T06:26:32;1.60;;;1.50;;
40501;SDS011;29631;49.168;9.848;2022-08-04T06:29:00;5.93;;;1.35;;
40501;SDS011;29631;49.168;9.848;2022-08-04T06:31:27;1.65;;;1.55;;
40501;SDS011;29631;49.168;9.848;2022-08-04T06:34:21;1.55;;;1.45;;
40501;SDS011;29631;49.168;9.848;2022-08-04T06:36:51;1.20;;;1.20;;
40501;SDS011;29631;49.168;9.848;2022-08-04T06:39:18;1.63;;;1.52;;
40501;SDS011;29631;49.168;9.848;2022-08-04T06:41:46;1.33;;;1.10;;
40501;SDS011;29631;49.168;9.848;2022-08-04T06:44:15;1.65;;;1.45;;
40501;SDS011;29631;49.168;9.848;2022-08-04T06:46:43;1.42;;;1.33;;
40501;SDS011;29631;49.168;9.848;2022-08-04T06:49:09;1.40;;;1.40;;
40501;SDS011;29631;49.168;9.848;2022-08-04T06:51:36;2.03;;;1.38;;
40501;SDS011;29631;49.168;9.848;2022-08-04T06:54:03;1.52;;;1.50;;
40501;SDS011;29631;49.168;9.848;2022-08-04T06:56:30;1.70;;;1.60;;
40501;SDS011;29631;49.168;9.848;2022-08-04T06:58:57;1.40;;;1.40;;
40501;SDS011;29631;49.168;9.848;2022-08-04T07:01:25;1.70;;;1.40;;
40501;SDS011;29631;49.168;9.848;2022-08-04T07:03:53;1.58;;;1.58;;
40501;SDS011;29631;49.168;9.848;2022-08-04T07:06:22;1.48;;;1.40;;
40501;SDS011;29631;49.168;9.848;2022-08-04T07:08:49;3.55;;;1.50;;
40501;SDS011;29631;49.168;9.848;2022-08-04T07:11:16;1.40;;;1.40;;
40501;SDS011;29631;49.168;9.848;2022-08-04T07:13:44;1.30;;;1.30;;
40501;SDS011;29631;49.168;9.848;2022-08-04T07:16:12;1.27;;;1.27;;
40501;SDS011;29631;49.168;9.848;2022-08-04T07:18:39;1.45;;;1.40;;
40501;SDS011;29631;49.168;9.848;2022-08-04T07:21:05;1.20;;;1.20;;
40501;SDS011;29631;49.168;9.848;2022-08-04T07:23:31;1.30;;;1.30;;
40501;SDS011;29631;49.168;9.848;2022-08-04T07:25:57;1.30;;;1.30;;
40501;SDS011;29631;49.168;9.848;2022-08-04T07:28:24;1.30;;;1.30;;
40501;SDS011;29631;49.168;9.848;2022-08-04T07:30:53;5.07;;;1.77;;
40501;SDS011;29631;49.168;9.848;2022-08-04T07:33:21;1.20;;;1.17;;
40501;SDS011;29631;49.168;9.848;2022-08-04T07:35:52;3.35;;;1.40;;
40501;SDS011;29631;49.168;9.848;2022-08-04T07:38:20;1.85;;;1.27;;
40501;SDS011;29631;49.168;9.848;2022-08-04T07:40:46;5.70;;;1.45;;
40501;SDS011;29631;49.168;9.848;2022-08-04T07:43:15;1.15;;;1.15;;
40501;SDS011;29631;49.168;9.848;2022-08-04T07:45:41;1.70;;;1.60;;
40501;SDS011;29631;49.168;9.848;2022-08-04T07:48:08;2.17;;;1.48;;
40501;SDS011;29631;49.168;9.848;2022-08-04T07:50:35;1.63;;;1.38;;
40501;SDS011;29631;49.168;9.848;2022-08-04T07:53:02;1.35;;;1.35;;
40501;SDS011;29631;49.168;9.848;2022-08-04T07:55:29;1.27;;;1.27;;
40501;SDS011;29631;49.168;9.848;2022-08-04T07:57:55;1.40;;;1.40;;
40501;SDS011;29631;49.168;9.848;2022-08-04T08:00:21;1.20;;;1.20;;
40501;SDS011;29631;49.168;9.848;2022-08-04T08:02:47;1.60;;;1.50;;
40501;SDS011;29631;49.168;9.848;2022-08-04T08:05:15;2.28;;;1.40;;
40501;SDS011;29631;49.168;9.848;2022-08-04T08:07:45;1.73;;;1.50;;
40501;SDS011;29631;49.168;9.848;2022-08-04T08:10:12;3.58;;;1.40;;
40501;SDS011;29631;49.168;9.848;2022-08-04T08:12:39;1.63;;;1.30;;
40501;SDS011;29631;49.168;9.848;2022-08-04T08:15:06;1.58;;;1.30;;
40501;SDS011;29631;49.168;9.848;2022-08-04T08:17:39;3.53;;;1.60;;
40501;SDS011;29631;49.168;9.848;2022-08-04T08:20:05;1.38;;;1.20;;
40501;SDS011;29631;49.168;9.848;2022-08-04T08:22:32;1.20;;;1.20;;
40501;SDS011;29631;49.168;9.848;2022-08-04T08:24:58;1.75;;;1.13;;
40501;SDS011;29631;49.168;9.848;2022-08-04T08:27:24;1.95;;;1.20;;
40501;SDS011;29631;49.168;9.848;2022-08-04T08:29:50;2.05;;;1.10;;
40501;SDS011;29631;49.168;9.848;2022-08-04T08:32:16;1.10;;;1.10;;
40501;SDS011;29631;49.168;9.848;2022-08-04T08:34:42;1.38;;;1.27;;
40501;SDS011;29631;49.168;9.848;2022-08-04T08:37:13;1.13;;;1.13;;
40501;SDS011;29631;49.168;9.848;2022-08-04T08:40:21;1.20;;;1.10;;
40501;SDS011;29631;49.168;9.848;2022-08-04T08:52:15;3.65;;;1.25;;
40501;SDS011;29631;49.168;9.848;2022-08-04T08:58:08;1.00;;;1.00;;
40501;SDS011;29631;49.168;9.848;2022-08-04T09:01:08;0.93;;;0.93;;
40501;SDS011;29631;49.168;9.848;2022-08-04T09:03:55;4.78;;;1.05;;
40501;SDS011;29631;49.168;9.848;2022-08-04T09:09:42;0.90;;;0.90;;
40501;SDS011;29631;49.168;9.848;2022-08-04T09:18:17;1.00;;;1.00;;
40501;SDS011;29631;49.168;9.848;2022-08-04T09:20:55;3.50;;;1.20;;
40501;SDS011;29631;49.168;9.848;2022-08-04T09:37:33;5.72;;;1.33;;
40501;SDS011;29631;49.168;9.848;2022-08-04T09:40:20;1.13;;;1.10;;
40501;SDS011;29631;49.168;9.848;2022-08-04T09:46:07;1.10;;;1.10;;
40501;SDS011;29631;49.168;9.848;2022-08-04T09:49:02;1.05;;;0.98;;
40501;SDS011;29631;49.168;9.848;2022-08-04T10:00:15;0.82;;;0.82;;
40501;SDS011;29631;49.168;9.848;2022-08-04T10:02:54;4.78;;;1.25;;
40501;SDS011;29631;49.168;9.848;2022-08-04T10:05:24;4.78;;;1.17;;
40501;SDS011;29631;49.168;9.848;2022-08-04T10:13:43;2.47;;;1.10;;
40501;SDS011;29631;49.168;9.848;2022-08-04T10:16:56;1.00;;;1.00;;
40501;SDS011;29631;49.168;9.848;2022-08-04T10:19:35;1.02;;;1.02;;
40501;SDS011;29631;49.168;9.848;2022-08-04T10:27:53;2.15;;;1.10;;
40501;SDS011;29631;49.168;9.848;2022-08-04T10:30:24;0.98;;;0.93;;
40501;SDS011;29631;49.168;9.848;2022-08-04T10:32:54;1.38;;;0.90;;
40501;SDS011;29631;49.168;9.848;2022-08-04T10:35:28;0.90;;;0.90;;
40501;SDS011;29631;49.168;9.848;2022-08-04T10:38:14;1.13;;;1.10;;
40501;SDS011;29631;49.168;9.848;2022-08-04T10:47:00;1.05;;;1.05;;
40501;SDS011;29631;49.168;9.848;2022-08-04T10:49:36;1.08;;;1.02;;
40501;SDS011;29631;49.168;9.848;2022-08-04T10:52:31;1.40;;;1.30;;
40501;SDS011;29631;49.168;9.848;2022-08-04T10:55:30;1.10;;;1.00;;
40501;SDS011;29631;49.168;9.848;2022-08-04T10:58:08;1.88;;;1.20;;
40501;SDS011;29631;49.168;9.848;2022-08-04T11:00:42;1.30;;;1.10;;
40501;SDS011;29631;49.168;9.848;2022-08-04T11:03:29;1.40;;;1.30;;
40501;SDS011;29631;49.168;9.848;2022-08-04T11:06:06;1.00;;;1.00;;
40501;SDS011;29631;49.168;9.848;2022-08-04T11:08:38;1.17;;;1.17;;
40501;SDS011;29631;49.168;9.848;2022-08-04T11:11:29;1.13;;;1.05;;
40501;SDS011;29631;49.168;9.848;2022-08-04T11:16:38;1.70;;;1.00;;
40501;SDS011;29631;49.168;9.848;2022-08-04T11:31:27;0.90;;;0.90;;
40501;SDS011;29631;49.168;9.848;2022-08-04T11:34:03;0.80;;;0.80;;
40501;SDS011;29631;49.168;9.848;2022-08-04T11:36:57;1.10;;;1.10;;
40501;SDS011;29631;49.168;9.848;2022-08-04T11:39:37;1.10;;;1.10;;
40501;SDS011;29631;49.168;9.848;2022-08-04T11:47:47;3.08;;;1.23;;
40501;SDS011;29631;49.168;9.848;2022-08-04T11:50:36;1.13;;;1.13;;
40501;SDS011;29631;49.168;9.848;2022-08-04T11:53:09;1.10;;;1.10;;
40501;SDS011;29631;49.168;9.848;2022-08-04T11:55:41;1.48;;;1.20;;
40501;SDS011;29631;49.168;9.848;2022-08-04T11:58:10;1.10;;;1.00;;
40501;SDS011;29631;49.168;9.848;2022-08-04T12:00:37;1.40;;;1.10;;
40501;SDS011;29631;49.168;9.848;2022-08-04T12:06:35;1.05;;;1.00;;
40501;SDS011;29631;49.168;9.848;2022-08-04T12:09:46;1.13;;;1.13;;
40501;SDS011;29631;49.168;9.848;2022-08-04T12:12:34;1.05;;;1.05;;
40501;SDS011;29631;49.168;9.848;2022-08-04T12:15:18;1.23;;;1.23;;
40501;SDS011;29631;49.168;9.848;2022-08-04T12:20:33;0.90;;;0.90;;
40501;SDS011;29631;49.168;9.848;2022-08-04T12:23:11;1.10;;;1.10;;
40501;SDS011;29631;49.168;9.848;2022-08-04T12:25:47;1.10;;;1.10;;
40501;SDS011;29631;49.168;9.848;2022-08-04T12:28:21;1.20;;;1.20;;
40501;SDS011;29631;49.168;9.848;2022-08-04T12:31:14;1.15;;;1.15;;
40501;SDS011;29631;49.168;9.848;2022-08-04T12:33:52;1.30;;;1.20;;
40501;SDS011;29631;49.168;9.848;2022-08-04T12:39:31;1.98;;;1.20;;
40501;SDS011;29631;49.168;9.848;2022-08-04T12:42:14;1.10;;;1.10;;
40501;SDS011;29631;49.168;9.848;2022-08-04T12:44:48;1.10;;;1.10;;
40501;SDS011;29631;49.168;9.848;2022-08-04T12:47:20;1.67;;;1.00;;
40501;SDS011;29631;49.168;9.848;2022-08-04T12:49:53;2.25;;;1.20;;
40501;SDS011;29631;49.168;9.848;2022-08-04T12:52:25;1.20;;;1.20;;
40501;SDS011;29631;49.168;9.848;2022-08-04T12:54:51;1.00;;;1.00;;
40501;SDS011;29631;49.168;9.848;2022-08-04T12:57:20;1.30;;;1.20;;
40501;SDS011;29631;49.168;9.848;2022-08-04T12:59:48;1.00;;;1.00;;
40501;SDS011;29631;49.168;9.848;2022-08-04T13:02:24;1.20;;;1.08;;
40501;SDS011;29631;49.168;9.848;2022-08-04T13:04:54;1.77;;;1.20;;
40501;SDS011;29631;49.168;9.848;2022-08-04T13:07:27;1.00;;;1.00;;
40501;SDS011;29631;49.168;9.848;2022-08-04T13:10:12;0.95;;;0.95;;
40501;SDS011;29631;49.168;9.848;2022-08-04T13:12:40;2.35;;;1.40;;
40501;SDS011;29631;49.168;9.848;2022-08-04T13:15:21;1.00;;;1.00;;
40501;SDS011;29631;49.168;9.848;2022-08-04T13:17:58;1.33;;;1.23;;
40501;SDS011;29631;49.168;9.848;2022-08-04T13:20:29;1.00;;;1.00;;
40501;SDS011;29631;49.168;9.848;2022-08-04T13:23:08;1.05;;;1.05;;
40501;SDS011;29631;49.168;9.848;2022-08-04T13:25:41;1.30;;;1.08;;
40501;SDS011;29631;49.168;9.848;2022-08-04T13:28:14;1.10;;;1.10;;
40501;SDS011;29631;49.168;9.848;2022-08-04T13:30:52;1.10;;;1.10;;
40501;SDS011;29631;49.168;9.848;2022-08-04T13:33:26;0.98;;;0.98;;
40501;SDS011;29631;49.168;9.848;2022-08-04T13:35:56;1.83;;;1.17;;
40501;SDS011;29631;49.168;9.848;2022-08-04T13:38:24;1.10;;;1.10;;
40501;SDS011;29631;49.168;9.848;2022-08-04T13:40:50;1.52;;;1.17;;
40501;SDS011;29631;49.168;9.848;2022-08-04T13:43:26;1.30;;;1.20;;
40501;SDS011;29631;49.168;9.848;2022-08-04T13:46:08;2.53;;;1.08;;
40501;SDS011;29631;49.168;9.848;2022-08-04T13:48:40;1.73;;;1.15;;
40501;SDS011;29631;49.168;9.848;2022-08-04T13:51:08;1.00;;;1.00;;
40501;SDS011;29631;49.168;9.848;2022-08-04T13:53:36;1.00;;;1.00;;
40501;SDS011;29631;49.168;9.848;2022-08-04T13:56:07;1.85;;;1.10;;
40501;SDS011;29631;49.168;9.848;2022-08-04T13:58:38;1.10;;;1.10;;
40501;SDS011;29631;49.168;9.848;2022-08-04T14:01:18;1.25;;;1.13;;
40501;SDS011;29631;49.168;9.848;2022-08-04T14:06:35;1.00;;;1.00;;
40501;SDS011;29631;49.168;9.848;2022-08-04T14:09:19;1.23;;;1.10;;
40501;SDS011;29631;49.168;9.848;2022-08-04T14:11:49;2.72;;;0.98;;
40501;SDS011;29631;49.168;9.848;2022-08-04T14:14:30;1.30;;;1.20;;
40501;SDS011;29631;49.168;9.848;2022-08-04T14:17:07;1.10;;;1.10;;
40501;SDS011;29631;49.168;9.848;2022-08-04T14:27:29;1.30;;;1.17;;
40501;SDS011;29631;49.168;9.848;2022-08-04T14:33:11;1.30;;;1.20;;
40501;SDS011;29631;49.168;9.848;2022-08-04T14:35:37;1.08;;;1.08;;
40501;SDS011;29631;49.168;9.848;2022-08-04T14:38:04;1.15;;;1.15;;
40501;SDS011;29631;49.168;9.848;2022-08-04T14:40:39;1.00;;;1.00;;
40501;SDS011;29631;49.168;9.848;2022-08-04T14:43:07;1.95;;;1.13;;
40501;SDS011;29631;49.168;9.848;2022-08-04T14:45:40;1.27;;;1.25;;
40501;SDS011;29631;49.168;9.848;2022-08-04T14:48:09;1.00;;;1.00;;
40501;SDS011;29631;49.168;9.848;2022-08-04T14:50:44;1.13;;;1.10;;
40501;SDS011;29631;49.168;9.848;2022-08-04T14:53:17;1.20;;;1.20;;
40501;SDS011;29631;49.168;9.848;2022-08-04T14:55:54;1.30;;;1.25;;
40501;SDS011;29631;49.168;9.848;2022-08-04T14:58:23;1.50;;;1.30;;
40501;SDS011;29631;49.168;9.848;2022-08-04T15:00:54;2.22;;;1.30;;
40501;SDS011;29631;49.168;9.848;2022-08-04T15:03:26;1.20;;;1.20;;
40501;SDS011;29631;49.168;9.848;2022-08-04T15:05:54;1.17;;;1.10;;
40501;SDS011;29631;49.168;9.848;2022-08-04T15:08:23;1.10;;;1.10;;
40501;SDS011;29631;49.168;9.848;2022-08-04T15:10:51;1.88;;;1.13;;
40501;SDS011;29631;49.168;9.848;2022-08-04T15:13:22;2.65;;;1.20;;
40501;SDS011;29631;49.168;9.848;2022-08-04T15:15:49;2.92;;;1.20;;
40501;SDS011;29631;49.168;9.848;2022-08-04T15:18:15;1.30;;;1.20;;
40501;SDS011;29631;49.168;9.848;2022-08-04T15:20:41;1.75;;;1.20;;
40501;SDS011;29631;49.168;9.848;2022-08-04T15:23:07;1.00;;;1.00;;
40501;SDS011;29631;49.168;9.848;2022-08-04T15:25:37;1.15;;;1.15;;
40501;SDS011;29631;49.168;9.848;2022-08-04T15:28:10;1.00;;;1.00;;
40501;SDS011;29631;49.168;9.848;2022-08-04T15:30:42;1.30;;;1.25;;
40501;SDS011;29631;49.168;9.848;2022-08-04T15:33:12;1.10;;;1.10;;
40501;SDS011;29631;49.168;9.848;2022-08-04T15:35:42;1.20;;;1.20;;
40501;SDS011;29631;49.168;9.848;2022-08-04T15:38:21;1.95;;;1.17;;
40501;SDS011;29631;49.168;9.848;2022-08-04T15:41:03;1.10;;;1.10;;
40501;SDS011;29631;49.168;9.848;2022-08-04T15:49:18;1.50;;;1.15;;
40501;SDS011;29631;49.168;9.848;2022-08-04T15:54:43;1.20;;;1.20;;
40501;SDS011;29631;49.168;9.848;2022-08-04T15:57:10;1.30;;;1.30;;
40501;SDS011;29631;49.168;9.848;2022-08-04T16:10:35;1.98;;;1.30;;
40501;SDS011;29631;49.168;9.848;2022-08-04T16:13:08;1.20;;;1.20;;
40501;SDS011;29631;49.168;9.848;2022-08-04T16:18:10;1.13;;;1.13;;
40501;SDS011;29631;49.168;9.848;2022-08-04T16:20:44;1.20;;;1.20;;
40501;SDS011;29631;49.168;9.848;2022-08-04T16:26:00;1.73;;;1.20;;
40501;SDS011;29631;49.168;9.848;2022-08-04T16:28:39;1.40;;;1.30;;
40501;SDS011;29631;49.168;9.848;2022-08-04T16:31:08;1.33;;;1.33;;
40501;SDS011;29631;49.168;9.848;2022-08-04T16:33:37;1.73;;;1.15;;
40501;SDS011;29631;49.168;9.848;2022-08-04T16:36:07;1.40;;;1.40;;
40501;SDS011;29631;49.168;9.848;2022-08-04T16:39:18;1.35;;;1.35;;
40501;SDS011;29631;49.168;9.848;2022-08-04T16:41:40;1.30;;;1.30;;
40501;SDS011;29631;49.168;9.848;2022-08-04T16:47:06;1.85;;;1.13;;
40501;SDS011;29631;49.168;9.848;2022-08-04T16:49:33;1.30;;;1.30;;
40501;SDS011;29631;49.168;9.848;2022-08-04T16:52:08;1.55;;;1.45;;
40501;SDS011;29631;49.168;9.848;2022-08-04T16:54:34;1.40;;;1.40;;
40501;SDS011;29631;49.168;9.848;2022-08-04T16:57:07;1.30;;;1.30;;
40501;SDS011;29631;49.168;9.848;2022-08-04T16:59:34;1.13;;;1.13;;
40501;SDS011;29631;49.168;9.848;2022-08-04T17:02:00;1.33;;;1.20;;
40501;SDS011;29631;49.168;9.848;2022-08-04T17:04:31;1.50;;;1.50;;
40501;SDS011;29631;49.168;9.848;2022-08-04T17:06:59;3.90;;;1.33;;
40501;SDS011;29631;49.168;9.848;2022-08-04T17:09:28;1.40;;;1.30;;
40501;SDS011;29631;49.168;9.848;2022-08-04T17:11:55;1.30;;;1.23;;
40501;SDS011;29631;49.168;9.848;2022-08-04T17:14:22;1.75;;;1.30;;
40501;SDS011;29631;49.168;9.848;2022-08-04T17:16:52;1.30;;;1.20;;
40501;SDS011;29631;49.168;9.848;2022-08-04T17:19:23;2.20;;;1.40;;
40501;SDS011;29631;49.168;9.848;2022-08-04T17:21:49;1.30;;;1.30;;
40501;SDS011;29631;49.168;9.848;2022-08-04T17:24:16;2.13;;;1.30;;
40501;SDS011;29631;49.168;9.848;2022-08-04T17:26:43;2.55;;;1.30;;
40501;SDS011;29631;49.168;9.848;2022-08-04T17:29:11;3.20;;;1.35;;
40501;SDS011;29631;49.168;9.848;2022-08-04T17:31:37;1.40;;;1.40;;
40501;SDS011;29631;49.168;9.848;2022-08-04T17:34:10;1.30;;;1.30;;
40501;SDS011;29631;49.168;9.848;2022-08-04T17:36:40;2.78;;;1.20;;
40501;SDS011;29631;49.168;9.848;2022-08-04T17:39:11;2.30;;;1.30;;
40501;SDS011;29631;49.168;9.848;2022-08-04T17:41:44;1.10;;;1.10;;
40501;SDS011;29631;49.168;9.848;2022-08-04T17:44:11;2.55;;;1.35;;
40501;SDS011;29631;49.168;9.848;2022-08-04T17:46:41;1.25;;;1.15;;
40501;SDS011;29631;49.168;9.848;2022-08-04T17:56:53;1.23;;;1.23;;
40501;SDS011;29631;49.168;9.848;2022-08-04T17:59:24;1.40;;;1.40;;
40501;SDS011;29631;49.168;9.848;2022-08-04T18:02:05;1.25;;;1.25;;
40501;SDS011;29631;49.168;9.848;2022-08-04T18:07:10;1.40;;;1.30;;
40501;SDS011;29631;49.168;9.848;2022-08-04T18:09:39;1.30;;;1.30;;
40501;SDS011;29631;49.168;9.848;2022-08-04T18:12:23;1.30;;;1.30;;
40501;SDS011;29631;49.168;9.848;2022-08-04T18:14:56;3.33;;;1.30;;
40501;SDS011;29631;49.168;9.848;2022-08-04T18:20:11;2.35;;;1.30;;
40501;SDS011;29631;49.168;9.848;2022-08-04T18:22:43;1.60;;;1.50;;
40501;SDS011;29631;49.168;9.848;2022-08-04T18:25:13;1.33;;;1.23;;
40501;SDS011;29631;49.168;9.848;2022-08-04T18:27:48;1.40;;;1.35;;
40501;SDS011;29631;49.168;9.848;2022-08-04T18:30:17;1.52;;;1.42;;
40501;SDS011;29631;49.168;9.848;2022-08-04T18:32:44;1.50;;;1.50;;
40501;SDS011;29631;49.168;9.848;2022-08-04T18:35:10;1.58;;;1.50;;
40501;SDS011;29631;49.168;9.848;2022-08-04T18:37:37;1.60;;;1.60;;
40501;SDS011;29631;49.168;9.848;2022-08-04T18:40:04;1.55;;;1.48;;
40501;SDS011;29631;49.168;9.848;2022-08-04T18:42:33;2.22;;;1.73;;
40501;SDS011;29631;49.168;9.848;2022-08-04T18:44:59;1.60;;;1.50;;
40501;SDS011;29631;49.168;9.848;2022-08-04T18:47:25;1.40;;;1.40;;
40501;SDS011;29631;49.168;9.848;2022-08-04T18:49:52;4.53;;;1.50;;
40501;SDS011;29631;49.168;9.848;2022-08-04T18:52:18;2.17;;;1.45;;
40501;SDS011;29631;49.168;9.848;2022-08-04T18:54:45;1.58;;;1.48;;
40501;SDS011;29631;49.168;9.848;2022-08-04T18:57:11;1.40;;;1.40;;
40501;SDS011;29631;49.168;9.848;2022-08-04T18:59:41;3.15;;;1.55;;
40501;SDS011;29631;49.168;9.848;2022-08-04T19:02:07;1.42;;;1.42;;
40501;SDS011;29631;49.168;9.848;2022-08-04T19:04:33;1.75;;;1.42;;
40501;SDS011;29631;49.168;9.848;2022-08-04T19:06:59;4.95;;;1.40;;
40501;SDS011;29631;49.168;9.848;2022-08-04T19:09:25;1.50;;;1.40;;
40501;SDS011;29631;49.168;9.848;2022-08-04T19:11:51;1.25;;;1.25;;
40501;SDS011;29631;49.168;9.848;2022-08-04T19:14:17;1.50;;;1.50;;
40501;SDS011;29631;49.168;9.848;2022-08-04T19:16:43;1.90;;;1.60;;
40501;SDS011;29631;49.168;9.848;2022-08-04T19:19:10;1.52;;;1.40;;
40501;SDS011;29631;49.168;9.848;2022-08-04T19:21:37;1.60;;;1.45;;
40501;SDS011;29631;49.168;9.848;2022-08-04T19:24:02;1.48;;;1.48;;
40501;SDS011;29631;49.168;9.848;2022-08-04T19:26:29;1.63;;;1.50;;
40501;SDS011;29631;49.168;9.848;2022-08-04T19:28:55;1.70;;;1.60;;
40501;SDS011;29631;49.168;9.848;2022-08-04T19:31:21;2.58;;;1.63;;
40501;SDS011;29631;49.168;9.848;2022-08-04T19:33:47;1.50;;;1.42;;
40501;SDS011;29631;49.168;9.848;2022-08-04T19:36:13;1.73;;;1.70;;
40501;SDS011;29631;49.168;9.848;2022-08-04T19:38:39;2.00;;;1.70;;
40501;SDS011;29631;49.168;9.848;2022-08-04T19:41:07;1.88;;;1.73;;
40501;SDS011;29631;49.168;9.848;2022-08-04T19:43:33;2.22;;;1.60;;
40501;SDS011;29631;49.168;9.848;2022-08-04T19:45:59;2.00;;;1.90;;
40501;SDS011;29631;49.168;9.848;2022-08-04T19:48:26;1.67;;;1.67;;
40501;SDS011;29631;49.168;9.848;2022-08-04T19:50:52;1.92;;;1.83;;
40501;SDS011;29631;49.168;9.848;2022-08-04T19:53:18;2.33;;;1.83;;
40501;SDS011;29631;49.168;9.848;2022-08-04T19:55:44;1.80;;;1.70;;
40501;SDS011;29631;49.168;9.848;2022-08-04T19:58:09;2.55;;;1.75;;
40501;SDS011;29631;49.168;9.848;2022-08-04T20:00:36;1.80;;;1.70;;
40501;SDS011;29631;49.168;9.848;2022-08-04T20:03:04;1.67;;;1.65;;
40501;SDS011;29631;49.168;9.848;2022-08-04T20:05:32;2.10;;;2.00;;
40501;SDS011;29631;49.168;9.848;2022-08-04T20:07:57;2.08;;;1.98;;
40501;SDS011;29631;49.168;9.848;2022-08-04T20:10:23;2.20;;;2.00;;
40501;SDS011;29631;49.168;9.848;2022-08-04T20:12:49;1.90;;;1.80;;